createdAt,value
2017-11-13T00:00:54.592Z,24.47
2017-11-13T00:03:21.646Z,21.90
2017-11-13T00:05:47.953Z,23.90
2017-11-13T00:08:14.257Z,23.10
2017-11-13T00:10:40.530Z,21.77
2017-11-13T00:13:07.611Z,22.30
2017-11-13T00:15:33.912Z,20.57
2017-11-13T00:18:00.480Z,20.60
2017-11-13T00:20:26.831Z,19.80
2017-11-13T00:22:53.140Z,21.60
2017-11-13T00:25:19.432Z,21.53
2017-11-13T00:27:46.476Z,19.83
2017-11-13T00:30:13.536Z,18.10
2017-11-13T00:32:39.840Z,18.90
2017-11-13T00:35:06.147Z,18.60
2017-11-13T00:37:32.432Z,19.10
2017-11-13T00:39:58.731Z,19.10
2017-11-13T00:42:25.048Z,18.30
2017-11-13T00:44:51.332Z,17.07
2017-11-13T00:47:17.637Z,18.30
2017-11-13T00:49:44.663Z,16.87
2017-11-13T00:52:10.962Z,18.33
2017-11-13T00:54:37.241Z,16.60
2017-11-13T00:57:04.288Z,17.60
2017-11-13T00:59:31.321Z,17.40
2017-11-13T01:01:57.617Z,15.90
2017-11-13T01:04:23.886Z,17.60
2017-11-13T01:06:50.932Z,17.03
2017-11-13T01:09:18.690Z,17.47
2017-11-13T01:11:44.981Z,15.40
2017-11-13T01:14:11.284Z,16.50
2017-11-13T01:16:38.315Z,17.00
2017-11-13T01:19:05.364Z,15.90
2017-11-13T01:21:31.669Z,17.70
2017-11-13T01:23:57.970Z,16.37
2017-11-13T01:26:24.767Z,17.20
2017-11-13T01:28:51.812Z,16.03
2017-11-13T01:31:18.902Z,16.87
2017-11-13T01:33:45.273Z,16.70
2017-11-13T01:36:12.326Z,16.07
2017-11-13T01:38:38.652Z,15.70
2017-11-13T01:41:04.957Z,17.30
2017-11-13T01:43:31.291Z,16.13
2017-11-13T01:45:57.612Z,17.07
2017-11-13T01:48:23.950Z,16.30
2017-11-13T01:50:50.300Z,16.63
2017-11-13T01:53:16.620Z,17.00
2017-11-13T01:55:42.934Z,17.77
2017-11-13T01:58:09.254Z,16.30
2017-11-13T02:00:35.573Z,15.60
2017-11-13T02:03:01.923Z,18.53
2017-11-13T02:05:28.249Z,17.90
2017-11-13T02:07:54.622Z,17.80
2017-11-13T02:10:20.951Z,17.00
2017-11-13T02:12:48.432Z,17.87
2017-11-13T02:15:17.465Z,17.20
2017-11-13T02:17:44.648Z,17.40
2017-11-13T02:20:11.728Z,17.93
2017-11-13T02:22:38.081Z,19.00
2017-11-13T02:25:04.438Z,20.10
2017-11-13T02:27:30.783Z,19.93
2017-11-13T02:29:57.856Z,19.53
2017-11-13T02:32:24.199Z,19.77
2017-11-13T02:34:50.524Z,19.00
2017-11-13T02:37:16.846Z,20.30
2017-11-13T02:39:43.190Z,18.70
2017-11-13T02:42:09.542Z,19.30
2017-11-13T02:44:35.895Z,18.87
2017-11-13T02:47:02.234Z,18.77
2017-11-13T02:49:28.554Z,19.33
2017-11-13T02:51:56.351Z,20.67
2017-11-13T02:54:23.420Z,21.27
2017-11-13T02:56:49.735Z,20.33
2017-11-13T02:59:16.061Z,20.53
2017-11-13T03:01:43.132Z,20.00
2017-11-13T03:04:16.336Z,19.80
2017-11-13T03:06:42.655Z,20.50
2017-11-13T03:09:09.001Z,20.07
2017-11-13T03:11:35.311Z,20.23
2017-11-13T03:14:02.369Z,21.50
2017-11-13T03:16:28.682Z,19.70
2017-11-13T03:18:55.015Z,19.87
2017-11-13T03:21:21.332Z,18.63
2017-11-13T03:23:48.418Z,18.07
2017-11-13T03:26:14.722Z,19.07
2017-11-13T03:28:41.794Z,18.87
2017-11-13T03:31:08.432Z,19.03
2017-11-13T03:33:34.756Z,18.27
2017-11-13T03:36:01.059Z,18.80
2017-11-13T03:38:28.107Z,20.20
2017-11-13T03:40:55.137Z,20.23
2017-11-13T03:43:21.455Z,19.10
2017-11-13T03:45:47.739Z,21.23
2017-11-13T03:48:14.840Z,19.43
2017-11-13T03:50:41.135Z,21.70
2017-11-13T03:53:07.438Z,19.47
2017-11-13T03:55:33.735Z,21.10
2017-11-13T03:58:00.025Z,20.57
2017-11-13T04:00:26.455Z,21.33
2017-11-13T04:02:52.741Z,21.30
2017-11-13T04:05:19.793Z,20.20
2017-11-13T04:07:46.828Z,19.60
2017-11-13T04:10:13.875Z,20.30
2017-11-13T04:12:40.904Z,19.70
2017-11-13T04:15:07.194Z,21.30
2017-11-13T04:17:33.487Z,22.27
2017-11-13T04:20:00.555Z,20.57
2017-11-13T04:22:26.899Z,21.90
2017-11-13T04:24:53.208Z,20.90
2017-11-13T04:27:19.491Z,22.67
2017-11-13T04:29:45.815Z,23.20
2017-11-13T04:32:12.149Z,22.47
2017-11-13T04:34:38.454Z,23.10
2017-11-13T04:37:04.736Z,22.50
2017-11-13T04:39:31.814Z,23.63
2017-11-13T04:41:58.131Z,21.50
2017-11-13T04:44:24.441Z,20.30
2017-11-13T04:46:51.477Z,20.97
2017-11-13T04:49:17.759Z,21.33
2017-11-13T04:51:44.049Z,20.93
2017-11-13T04:54:11.082Z,22.50
2017-11-13T04:56:38.142Z,21.03
2017-11-13T04:59:04.424Z,21.77
2017-11-13T05:01:30.760Z,22.33
2017-11-13T05:03:57.084Z,23.07
2017-11-13T05:06:23.399Z,20.00
2017-11-13T05:08:49.732Z,22.37
2017-11-13T05:11:16.077Z,22.73
2017-11-13T05:13:42.385Z,22.30
2017-11-13T05:16:08.718Z,20.63
2017-11-13T05:18:35.063Z,21.40
2017-11-13T05:21:01.418Z,20.50
2017-11-13T05:23:27.745Z,21.20
2017-11-13T05:25:54.049Z,20.97
2017-11-13T05:28:20.368Z,21.80
2017-11-13T05:30:46.666Z,20.40
2017-11-13T05:33:13.707Z,21.20
2017-11-13T05:35:39.995Z,21.67
2017-11-13T05:38:06.293Z,22.83
2017-11-13T05:40:32.593Z,22.07
2017-11-13T05:42:59.643Z,21.50
2017-11-13T05:45:25.936Z,21.67
2017-11-13T05:47:52.231Z,19.33
2017-11-13T05:50:18.523Z,20.40
2017-11-13T05:52:46.316Z,19.70
2017-11-13T05:55:12.692Z,20.50
2017-11-13T05:57:38.997Z,19.77
2017-11-13T06:00:05.318Z,19.83
2017-11-13T06:02:31.627Z,19.67
2017-11-13T06:04:58.654Z,18.40
2017-11-13T06:07:24.963Z,19.00
2017-11-13T06:09:51.242Z,21.93
2017-11-13T06:12:18.290Z,21.30
2017-11-13T06:14:44.592Z,19.50
2017-11-13T06:17:10.890Z,19.33
2017-11-13T06:19:37.194Z,20.40
2017-11-13T06:22:03.490Z,19.53
2017-11-13T06:24:30.552Z,18.83
2017-11-13T06:26:57.584Z,18.90
2017-11-13T06:29:23.880Z,18.30
2017-11-13T06:31:50.168Z,18.53
2017-11-13T06:34:16.459Z,19.33
2017-11-13T06:36:42.837Z,18.77
2017-11-13T06:39:09.154Z,18.40
2017-11-13T06:41:36.263Z,18.47
2017-11-13T06:44:02.566Z,17.70
2017-11-13T06:46:28.846Z,18.27
2017-11-13T06:48:56.007Z,19.10
2017-11-13T06:51:23.040Z,19.33
2017-11-13T06:53:49.359Z,17.43
2017-11-13T06:56:16.466Z,20.80
2017-11-13T06:58:42.768Z,19.43
2017-11-13T07:01:09.162Z,19.30
2017-11-13T07:03:35.493Z,21.40
2017-11-13T07:06:01.832Z,19.30
2017-11-13T07:08:29.013Z,19.40
2017-11-13T07:10:55.359Z,20.87
2017-11-13T07:13:21.695Z,19.27
2017-11-13T07:15:48.030Z,19.00
2017-11-13T07:18:14.380Z,19.57
2017-11-13T07:20:40.763Z,17.53
2017-11-13T07:23:07.141Z,17.73
2017-11-13T07:25:33.580Z,19.50
2017-11-13T07:27:59.887Z,18.37
2017-11-13T07:30:26.264Z,17.70
2017-11-13T07:32:52.771Z,18.10
2017-11-13T07:35:19.115Z,17.20
2017-11-13T07:37:45.489Z,15.80
2017-11-13T07:40:11.836Z,18.10
2017-11-13T07:42:38.246Z,18.47
2017-11-13T07:45:04.625Z,18.30
2017-11-13T07:47:30.988Z,18.00
2017-11-13T07:49:58.063Z,19.77
2017-11-13T07:52:24.437Z,17.07
2017-11-13T07:54:50.782Z,18.77
2017-11-13T07:57:17.107Z,17.07
2017-11-13T07:59:43.450Z,18.10
2017-11-13T08:02:10.579Z,18.60
2017-11-13T08:04:38.548Z,15.97
2017-11-13T08:07:05.799Z,16.17
2017-11-13T08:09:32.236Z,17.60
2017-11-13T08:11:58.555Z,15.53
2017-11-13T08:14:24.867Z,15.40
2017-11-13T08:16:51.217Z,17.67
2017-11-13T08:19:17.573Z,18.87
2017-11-13T08:21:43.938Z,19.47
2017-11-13T08:24:10.294Z,17.33
2017-11-13T08:26:36.651Z,17.37
2017-11-13T08:29:03.192Z,17.70
2017-11-13T08:31:30.417Z,19.00
2017-11-13T08:33:57.614Z,19.10
2017-11-13T08:36:24.043Z,19.50
2017-11-13T08:38:50.428Z,17.13
2017-11-13T08:41:16.812Z,17.93
2017-11-13T08:43:44.029Z,17.40
2017-11-13T08:46:11.155Z,17.80
2017-11-13T08:48:37.519Z,20.20
2017-11-13T08:51:04.684Z,18.97
2017-11-13T08:53:31.195Z,17.20
2017-11-13T08:55:57.602Z,18.87
2017-11-13T08:58:24.758Z,16.83
2017-11-13T09:00:51.259Z,17.80
2017-11-13T09:03:17.700Z,16.40
2017-11-13T09:05:44.180Z,16.23
2017-11-13T09:08:10.633Z,18.03
2017-11-13T09:10:36.989Z,18.30
2017-11-13T09:13:03.343Z,16.87
2017-11-13T09:15:29.748Z,17.40
2017-11-13T09:17:56.828Z,16.70
2017-11-13T09:20:23.376Z,17.10
2017-11-13T09:22:50.484Z,17.97
2017-11-13T09:25:16.866Z,17.27
2017-11-13T09:27:43.230Z,18.30
2017-11-13T09:30:09.630Z,18.53
2017-11-13T09:32:35.987Z,17.43
2017-11-13T09:35:03.083Z,16.80
2017-11-13T09:37:29.482Z,17.50
2017-11-13T09:39:55.980Z,18.30
2017-11-13T09:42:22.612Z,18.90
2017-11-13T09:44:48.952Z,18.53
2017-11-13T09:47:15.306Z,19.20
2017-11-13T09:49:41.760Z,18.17
2017-11-13T09:52:08.145Z,18.23
2017-11-13T09:54:34.518Z,17.73
2017-11-13T09:57:00.895Z,17.13
2017-11-13T09:59:28.723Z,15.70
2017-11-13T10:01:55.261Z,15.33
2017-11-13T10:04:21.611Z,15.53
2017-11-13T10:06:48.001Z,13.00
2017-11-13T10:09:14.392Z,14.57
2017-11-13T10:11:42.328Z,13.27
2017-11-13T10:14:08.747Z,11.47
2017-11-13T10:16:35.156Z,12.70
2017-11-13T10:19:02.385Z,13.97
2017-11-13T10:21:28.814Z,11.63
2017-11-13T10:23:55.211Z,11.47
2017-11-13T10:26:22.605Z,10.30
2017-11-13T10:28:49.002Z,9.70
2017-11-13T10:31:15.351Z,9.67
2017-11-13T10:33:41.713Z,8.70
2017-11-13T10:36:08.094Z,9.30
2017-11-13T10:38:34.428Z,8.70
2017-11-13T10:41:00.955Z,7.77
2017-11-13T10:43:27.374Z,8.33
2017-11-13T10:45:53.929Z,9.27
2017-11-13T10:48:21.116Z,9.43
2017-11-13T10:50:47.547Z,8.53
2017-11-13T10:53:14.747Z,7.37
2017-11-13T10:55:41.153Z,7.37
2017-11-13T10:58:07.571Z,7.97
2017-11-13T11:00:34.711Z,8.93
2017-11-13T11:03:01.888Z,7.77
2017-11-13T11:05:29.107Z,8.13
2017-11-13T11:07:55.549Z,8.57
2017-11-13T11:10:22.759Z,7.60
2017-11-13T11:12:49.247Z,6.33
2017-11-13T11:15:15.815Z,6.33
2017-11-13T11:17:46.353Z,5.70
2017-11-13T11:20:31.633Z,6.00
2017-11-13T11:22:58.894Z,5.80
2017-11-13T11:25:26.173Z,6.20
2017-11-13T11:27:52.529Z,5.77
2017-11-13T11:30:35.528Z,6.20
2017-11-13T11:33:08.104Z,6.00
2017-11-13T11:35:51.386Z,5.80
2017-11-13T11:38:17.807Z,5.60
2017-11-13T11:40:44.245Z,4.93
2017-11-13T11:43:10.729Z,3.90
2017-11-13T11:45:37.127Z,4.07
2017-11-13T11:48:18.414Z,4.20
2017-11-13T11:50:44.754Z,3.50
2017-11-13T11:53:11.130Z,3.37
2017-11-13T11:55:53.505Z,3.53
2017-11-13T11:58:20.087Z,4.00
2017-11-13T12:00:46.600Z,2.90
2017-11-13T12:03:12.992Z,3.10
2017-11-13T12:05:39.407Z,3.17
2017-11-13T12:08:05.808Z,3.10
2017-11-13T12:10:32.182Z,2.90
2017-11-13T12:12:58.738Z,2.83
2017-11-13T12:15:25.910Z,2.80
2017-11-13T12:17:52.372Z,3.27
2017-11-13T12:20:18.722Z,2.87
2017-11-13T12:22:45.126Z,3.60
2017-11-13T12:25:11.506Z,3.37
2017-11-13T12:27:37.908Z,3.30
2017-11-13T12:30:04.384Z,3.03
2017-11-13T12:32:31.503Z,3.17
2017-11-13T12:34:57.865Z,3.00
2017-11-13T12:37:24.273Z,2.10
2017-11-13T12:39:51.752Z,1.60
2017-11-13T12:42:18.324Z,1.53
2017-11-13T12:44:45.719Z,2.10
2017-11-13T12:47:12.239Z,1.40
2017-11-13T12:49:39.092Z,1.67
2017-11-13T12:52:05.539Z,1.70
2017-11-13T12:54:31.973Z,1.13
2017-11-13T12:56:58.418Z,1.10
2017-11-13T12:59:24.852Z,1.20
2017-11-13T13:01:51.231Z,1.20
2017-11-13T13:04:17.643Z,1.30
2017-11-13T13:06:44.749Z,1.10
2017-11-13T13:09:11.125Z,1.53
2017-11-13T13:11:37.482Z,1.30
2017-11-13T13:14:03.897Z,1.03
2017-11-13T13:16:30.249Z,1.47
2017-11-13T13:18:56.632Z,1.20
2017-11-13T13:21:23.037Z,1.30
2017-11-13T13:23:50.905Z,1.80
2017-11-13T13:26:17.299Z,1.20
2017-11-13T13:28:43.658Z,1.37
2017-11-13T13:31:10.044Z,1.00
2017-11-13T13:33:37.166Z,1.50
2017-11-13T13:36:03.554Z,1.10
2017-11-13T13:38:30.029Z,1.80
2017-11-13T13:40:57.141Z,1.20
2017-11-13T13:43:23.613Z,1.10
2017-11-13T13:45:50.052Z,1.47
2017-11-13T13:48:16.487Z,1.27
2017-11-13T13:50:43.568Z,1.40
2017-11-13T13:53:09.952Z,1.30
2017-11-13T13:55:36.272Z,1.23
2017-11-13T13:58:02.670Z,1.70
2017-11-13T14:00:29.042Z,1.30
2017-11-13T14:02:55.391Z,1.20
2017-11-13T14:05:22.528Z,1.50
2017-11-13T14:07:48.875Z,1.23
2017-11-13T14:10:15.230Z,1.20
2017-11-13T14:12:41.648Z,1.67
2017-11-13T14:15:08.818Z,1.67
2017-11-13T14:17:35.310Z,1.53
2017-11-13T14:20:01.674Z,1.30
2017-11-13T14:22:28.071Z,1.37
2017-11-13T14:24:54.439Z,1.70
2017-11-13T14:27:20.816Z,1.40
2017-11-13T14:29:47.279Z,1.27
2017-11-13T14:32:13.620Z,1.07
2017-11-13T14:34:40.144Z,1.37
2017-11-13T14:37:06.741Z,1.27
2017-11-13T14:39:33.108Z,1.30
2017-11-13T14:42:00.308Z,1.63
2017-11-13T14:44:26.696Z,1.13
2017-11-13T14:46:53.811Z,1.20
2017-11-13T14:49:20.181Z,1.20
2017-11-13T14:51:47.436Z,1.70
2017-11-13T14:54:13.789Z,1.43
2017-11-13T14:56:40.182Z,1.30
2017-11-13T14:59:06.551Z,2.00
2017-11-13T15:01:33.693Z,1.47
2017-11-13T15:04:00.069Z,1.07
2017-11-13T15:06:26.449Z,1.50
2017-11-13T15:08:52.850Z,1.30
2017-11-13T15:11:19.973Z,1.20
2017-11-13T15:13:46.292Z,1.30
2017-11-13T15:16:12.686Z,1.20
2017-11-13T15:18:39.814Z,1.13
2017-11-13T15:21:07.063Z,1.23
2017-11-13T15:23:33.679Z,1.20
2017-11-13T15:26:00.062Z,1.37
2017-11-13T15:28:26.405Z,0.97
2017-11-13T15:30:52.777Z,1.30
2017-11-13T15:33:19.124Z,1.00
2017-11-13T15:35:45.466Z,1.17
2017-11-13T15:38:11.818Z,1.10
2017-11-13T15:40:38.878Z,1.00
2017-11-13T15:43:05.210Z,1.30
2017-11-13T15:45:31.514Z,1.10
2017-11-13T15:47:57.845Z,1.50
2017-11-13T15:50:24.200Z,1.30
2017-11-13T15:52:51.264Z,1.33
2017-11-13T15:55:17.575Z,1.33
2017-11-13T15:57:44.654Z,1.37
2017-11-13T16:00:10.967Z,1.43
2017-11-13T16:02:38.035Z,1.30
2017-11-13T16:05:04.449Z,1.40
2017-11-13T16:07:30.923Z,1.43
2017-11-13T16:09:58.117Z,1.60
2017-11-13T16:12:24.668Z,1.40
2017-11-13T16:14:51.267Z,1.73
2017-11-13T16:17:17.693Z,1.57
2017-11-13T16:19:44.797Z,1.30
2017-11-13T16:22:11.135Z,1.17
2017-11-13T16:24:37.478Z,1.27
2017-11-13T16:27:03.821Z,1.30
2017-11-13T16:29:30.208Z,1.07
2017-11-13T16:31:56.548Z,1.63
2017-11-13T16:34:22.879Z,1.50
2017-11-13T16:36:49.208Z,1.30
2017-11-13T16:39:15.540Z,1.77
2017-11-13T16:41:41.831Z,1.87
2017-11-13T16:44:08.922Z,1.90
2017-11-13T16:46:35.235Z,1.90
2017-11-13T16:49:01.525Z,1.73
2017-11-13T16:51:27.807Z,1.77
2017-11-13T16:53:54.113Z,1.70
2017-11-13T16:56:20.416Z,1.87
2017-11-13T16:58:46.724Z,1.63
2017-11-13T17:01:13.054Z,1.73
2017-11-13T17:03:39.351Z,1.87
2017-11-13T17:06:05.657Z,1.87
2017-11-13T17:08:31.971Z,2.40
2017-11-13T17:10:59.000Z,2.77
2017-11-13T17:13:25.300Z,5.10
2017-11-13T17:15:51.594Z,6.10
2017-11-13T17:18:18.616Z,5.20
2017-11-13T17:20:44.922Z,5.40
2017-11-13T17:23:11.219Z,4.50
2017-11-13T17:25:37.505Z,5.43
2017-11-13T17:28:03.804Z,4.63
2017-11-13T17:30:30.121Z,3.93
2017-11-13T17:32:56.395Z,4.10
2017-11-13T17:35:22.708Z,3.50
2017-11-13T17:37:49.018Z,2.30
2017-11-13T17:40:15.370Z,2.60
2017-11-13T17:42:42.462Z,2.50
2017-11-13T17:45:09.553Z,2.20
2017-11-13T17:47:35.869Z,2.33
2017-11-13T17:50:02.219Z,2.60
2017-11-13T17:52:28.527Z,2.40
2017-11-13T17:54:54.903Z,2.00
2017-11-13T17:57:21.295Z,2.40
2017-11-13T17:59:47.627Z,2.70
2017-11-13T18:02:14.039Z,3.60
2017-11-13T18:04:40.383Z,3.53
2017-11-13T18:07:06.708Z,3.77
2017-11-13T18:09:33.033Z,3.23
2017-11-13T18:11:59.327Z,2.87
2017-11-13T18:14:26.537Z,2.70
2017-11-13T18:16:52.882Z,2.70
2017-11-13T18:19:19.224Z,2.70
2017-11-13T18:21:45.567Z,2.50
2017-11-13T18:24:12.615Z,3.30
2017-11-13T18:26:39.675Z,3.27
2017-11-13T18:29:06.709Z,3.10
2017-11-13T18:31:33.092Z,4.10
2017-11-13T18:33:59.382Z,3.97
2017-11-13T18:36:25.751Z,3.90
2017-11-13T18:38:52.067Z,2.70
2017-11-13T18:41:18.413Z,2.80
2017-11-13T18:43:44.752Z,3.30
2017-11-13T18:46:11.057Z,3.67
2017-11-13T18:48:37.426Z,3.13
2017-11-13T18:51:03.942Z,2.70
2017-11-13T18:53:30.275Z,2.80
2017-11-13T18:55:56.585Z,2.90
2017-11-13T18:58:22.943Z,2.83
2017-11-13T19:00:49.266Z,3.40
2017-11-13T19:03:15.611Z,3.77
2017-11-13T19:05:41.952Z,3.20
2017-11-13T19:08:08.338Z,3.10
2017-11-13T19:10:34.654Z,2.90
2017-11-13T19:13:01.198Z,3.30
2017-11-13T19:15:27.541Z,3.23
2017-11-13T19:17:53.934Z,3.17
2017-11-13T19:20:20.986Z,4.50
2017-11-13T19:22:48.059Z,4.60
2017-11-13T19:25:14.805Z,8.20
2017-11-13T19:27:42.209Z,6.90
2017-11-13T19:30:09.295Z,6.17
2017-11-13T19:32:35.618Z,5.17
2017-11-13T19:35:02.015Z,4.57
2017-11-13T19:37:29.078Z,4.67
2017-11-13T19:39:56.147Z,4.97
2017-11-13T19:42:23.254Z,4.87
2017-11-13T19:44:49.573Z,5.10
2017-11-13T19:47:15.878Z,5.87
2017-11-13T19:49:42.194Z,6.10
2017-11-13T19:52:08.527Z,5.40
2017-11-13T19:54:34.872Z,5.80
2017-11-13T19:57:01.155Z,5.70
2017-11-13T19:59:28.234Z,6.13
2017-11-13T20:01:54.549Z,6.90
2017-11-13T20:04:20.856Z,6.47
2017-11-13T20:06:47.202Z,6.07
2017-11-13T20:09:14.266Z,6.37
2017-11-13T20:11:40.742Z,6.53
2017-11-13T20:14:07.066Z,6.60
2017-11-13T20:16:33.504Z,6.13
2017-11-13T20:18:59.823Z,5.27
2017-11-13T20:21:26.127Z,6.10
2017-11-13T20:23:52.466Z,6.47
2017-11-13T20:26:18.928Z,6.50
2017-11-13T20:28:45.272Z,6.43
2017-11-13T20:31:12.464Z,7.03
2017-11-13T20:33:38.802Z,6.87
2017-11-13T20:36:05.211Z,7.50
2017-11-13T20:38:31.669Z,7.70
2017-11-13T20:40:58.051Z,8.03
2017-11-13T20:43:24.383Z,13.20
2017-11-13T20:45:50.720Z,13.23
2017-11-13T20:48:17.037Z,9.63
2017-11-13T20:50:43.362Z,7.33
2017-11-13T20:53:09.647Z,5.87
2017-11-13T20:55:36.044Z,6.37
2017-11-13T20:58:02.514Z,6.57
2017-11-13T21:00:28.852Z,7.37
2017-11-13T21:02:55.212Z,7.00
2017-11-13T21:05:21.540Z,7.30
2017-11-13T21:07:47.853Z,7.30
2017-11-13T21:10:14.163Z,6.83
2017-11-13T21:12:40.459Z,7.40
2017-11-13T21:15:06.757Z,7.63
2017-11-13T21:17:33.054Z,7.03
2017-11-13T21:19:59.332Z,7.33
2017-11-13T21:22:25.754Z,7.70
2017-11-13T21:24:52.070Z,7.03
2017-11-13T21:27:18.381Z,7.07
2017-11-13T21:29:44.673Z,8.33
2017-11-13T21:32:11.740Z,6.40
2017-11-13T21:34:38.037Z,8.00
2017-11-13T21:37:04.415Z,7.50
2017-11-13T21:39:30.998Z,8.67
2017-11-13T21:41:57.795Z,8.27
2017-11-13T21:44:24.167Z,8.57
2017-11-13T21:46:50.459Z,9.93
2017-11-13T21:49:16.748Z,8.83
2017-11-13T21:51:43.779Z,8.53
2017-11-13T21:54:10.375Z,8.67
2017-11-13T21:56:36.661Z,9.10
2017-11-13T21:59:03.710Z,9.00
2017-11-13T22:01:30.744Z,10.27
2017-11-13T22:03:58.562Z,10.03
2017-11-13T22:06:24.856Z,9.70
2017-11-13T22:08:51.178Z,9.87
2017-11-13T22:11:18.941Z,10.50
2017-11-13T22:13:45.219Z,11.60
2017-11-13T22:16:11.523Z,11.27
2017-11-13T22:18:38.585Z,12.10
2017-11-13T22:21:04.911Z,11.63
2017-11-13T22:23:31.925Z,11.03
2017-11-13T22:25:58.220Z,11.57
2017-11-13T22:28:24.544Z,10.17
2017-11-13T22:30:52.728Z,11.60
2017-11-13T22:33:19.179Z,11.67
2017-11-13T22:35:45.468Z,13.03
2017-11-13T22:38:11.775Z,13.47
2017-11-13T22:40:39.607Z,12.90
2017-11-13T22:43:05.919Z,11.57
2017-11-13T22:45:32.274Z,12.63
2017-11-13T22:47:59.315Z,12.50
2017-11-13T22:50:27.132Z,11.73
2017-11-13T22:52:53.434Z,12.43
2017-11-13T22:55:20.469Z,12.97
2017-11-13T22:57:46.758Z,12.23
2017-11-13T23:00:13.058Z,12.47
2017-11-13T23:02:39.391Z,12.33
2017-11-13T23:05:05.730Z,12.37
2017-11-13T23:07:32.018Z,11.37
2017-11-13T23:09:59.787Z,12.47
2017-11-13T23:12:26.825Z,13.23
2017-11-13T23:14:53.112Z,11.50
2017-11-13T23:17:19.435Z,13.70
2017-11-13T23:19:45.718Z,11.93
2017-11-13T23:22:12.018Z,13.30
2017-11-13T23:24:38.317Z,13.53
2017-11-13T23:27:04.643Z,12.80
2017-11-13T23:29:30.949Z,12.77
2017-11-13T23:31:57.994Z,12.27
2017-11-13T23:34:25.027Z,13.37
2017-11-13T23:36:51.321Z,12.47
2017-11-13T23:39:17.634Z,12.80
2017-11-13T23:41:43.913Z,11.40
2017-11-13T23:44:10.209Z,12.23
2017-11-13T23:46:36.489Z,12.30
2017-11-13T23:49:02.806Z,11.97
2017-11-13T23:51:30.593Z,12.40
2017-11-13T23:53:56.902Z,10.70
2017-11-13T23:56:23.959Z,12.83
2017-11-13T23:58:51.010Z,11.73
